Time;durP1;ratioP1;P1;durP2;ratioP2;P2;SDS_P1;SDS_P2;PMS_P1;PMS_P2;Temp;Humidity;BMP_temperature;BMP_pressure;BME280_temperature;BME280_humidity;BME280_pressure;Samples;Min_cycle;Max_cycle;Signal;HPM_P1;HPM_P2
2021/09/22 00:01:09;;;;;;;8.93;6.75;;;;;;;15.97;66.65;97497.56;4982999;28;20212;-69
2021/09/22 00:03:36;;;;;;;10.25;6.53;;;;;;;15.85;66.36;97486.78;4981668;28;20064;-69
2021/09/22 00:06:04;;;;;;;11.65;8.27;;;;;;;15.93;66.49;97490.38;4983069;28;20043;-69
2021/09/22 00:08:31;;;;;;;8.82;7.22;;;;;;;15.59;66.23;97442.38;4983058;28;20085;-69
2021/09/22 00:10:59;;;;;;;14.02;9.30;;;;;;;15.86;67.00;97493.94;4981743;28;20054;-69
2021/09/22 00:13:26;;;;;;;9.45;7.35;;;;;;;15.84;67.02;97485.16;4983165;28;20138;-69
2021/09/22 00:15:53;;;;;;;11.35;7.55;;;;;;;15.55;66.47;97426.81;4981890;28;20086;-69
2021/09/22 00:18:19;;;;;;;9.05;7.18;;;;;;;15.98;66.80;97482.41;4982989;28;20509;-69
2021/09/22 00:20:46;;;;;;;10.57;6.85;;;;;;;16.06;66.40;97486.03;4981383;28;20053;-69
2021/09/22 00:23:13;;;;;;;10.70;7.90;;;;;;;16.00;66.54;97482.81;4983217;28;20096;-69
2021/09/22 00:25:39;;;;;;;11.57;7.82;;;;;;;15.86;67.17;97452.03;4982618;28;20054;-69
2021/09/22 00:28:07;;;;;;;10.98;8.23;;;;;;;15.72;66.95;97443.63;4982860;28;20065;-69
2021/09/22 00:30:35;;;;;;;10.05;7.95;;;;;;;15.51;67.68;97382.09;4982896;28;20046;-69
2021/09/22 00:33:03;;;;;;;10.07;8.13;;;;;;;15.79;67.61;97429.66;4981385;28;20503;-69
2021/09/22 00:35:29;;;;;;;12.35;8.23;;;;;;;15.69;66.02;97408.09;4982192;28;20529;-69
2021/09/22 00:37:56;;;;;;;8.52;7.53;;;;;;;15.64;65.98;97390.91;4981385;28;20050;-69
2021/09/22 00:40:23;;;;;;;9.30;8.30;;;;;;;16.20;65.50;97477.69;4980610;28;20090;-69
2021/09/22 00:42:50;;;;;;;12.00;7.65;;;;;;;16.15;66.06;97478.88;4982636;28;20054;-69
2021/09/22 00:45:17;;;;;;;8.32;6.65;;;;;;;16.05;65.92;97468.47;4981984;28;20055;-69
2021/09/22 00:47:45;;;;;;;9.45;7.95;;;;;;;16.13;65.89;97470.06;4981122;28;20078;-69
2021/09/22 00:50:12;;;;;;;7.75;6.72;;;;;;;16.15;65.66;97462.09;4982577;28;20055;-68
2021/09/22 00:52:40;;;;;;;8.75;7.22;;;;;;;16.01;65.96;97459.25;4982309;28;20056;-69
2021/09/22 00:55:08;;;;;;;13.30;7.78;;;;;;;15.73;66.38;97427.66;4982627;28;20046;-70
2021/09/22 00:57:50;;;;;;;9.05;7.40;;;;;;;15.82;68.24;97453.22;4982632;28;20578;-70
2021/09/22 01:00:19;;;;;;;14.40;9.13;;;;;;;14.78;68.36;97310.81;4981974;28;20929;-69
2021/09/22 01:02:47;;;;;;;16.00;9.82;;;;;;;15.45;69.40;97455.47;4982459;28;20054;-69
2021/09/22 01:05:20;;;;;;;15.50;10.55;;;;;;;14.97;69.85;97351.53;4982289;28;20054;-69
2021/09/22 01:07:47;;;;;;;10.25;7.72;;;;;;;14.97;71.36;97412.91;4982810;28;20757;-69
2021/09/22 01:10:15;;;;;;;16.67;10.20;;;;;;;15.35;72.34;97456.19;4982451;28;20054;-69
2021/09/22 01:12:43;;;;;;;32.03;14.88;;;;;;;15.29;73.73;97452.16;4982160;28;20066;-69
2021/09/22 01:15:11;;;;;;;23.20;12.00;;;;;;;14.86;77.58;97445.53;4980779;28;20050;-69
2021/09/22 01:17:38;;;;;;;23.42;12.85;;;;;;;14.68;79.77;97439.03;4982579;28;20520;-69
2021/09/22 01:20:08;;;;;;;23.38;11.38;;;;;;;14.49;80.72;97442.88;4982356;28;20483;-69
2021/09/22 01:22:34;;;;;;;22.80;11.25;;;;;;;14.37;79.48;97381.06;4982494;28;20137;-69
2021/09/22 01:25:02;;;;;;;16.95;9.95;;;;;;;14.68;78.99;97416.75;4982706;28;20058;-69
2021/09/22 01:27:28;;;;;;;34.80;15.80;;;;;;;14.95;78.44;97448.81;4980417;28;20566;-69
2021/09/22 01:29:55;;;;;;;29.80;15.07;;;;;;;15.12;77.78;97453.69;4980477;28;20050;-70
2021/09/22 01:32:22;;;;;;;15.02;9.07;;;;;;;15.11;77.21;97435.34;4981458;28;20054;-69
2021/09/22 01:34:49;;;;;;;14.23;9.68;;;;;;;14.24;81.15;97385.31;4981557;28;20061;-70
2021/09/22 01:37:15;;;;;;;14.30;9.10;;;;;;;14.35;83.11;97425.25;4982002;28;20050;-69
2021/09/22 01:39:43;;;;;;;16.15;10.13;;;;;;;14.23;84.56;97425.47;4981488;28;20517;-68
2021/09/22 01:42:10;;;;;;;17.55;9.73;;;;;;;14.24;85.03;97422.34;4981898;28;20145;-69
2021/09/22 01:44:37;;;;;;;18.42;10.75;;;;;;;14.02;85.05;97369.59;4980210;28;20461;-69
2021/09/22 01:47:04;;;;;;;14.18;9.27;;;;;;;14.61;84.08;97411.09;4980448;28;20061;-69
2021/09/22 01:49:31;;;;;;;12.02;8.80;;;;;;;14.84;82.12;97431.19;4980190;28;20054;-69
2021/09/22 01:52:00;;;;;;;13.27;9.35;;;;;;;14.50;79.83;97413.81;4981353;28;20509;-69
2021/09/22 01:54:27;;;;;;;13.73;9.48;;;;;;;14.54;78.55;97391.53;4981116;28;20504;-69
2021/09/22 01:56:54;;;;;;;14.93;10.60;;;;;;;14.51;77.80;97378.38;4979963;28;20544;-70
2021/09/22 01:59:21;;;;;;;14.57;9.77;;;;;;;14.91;79.33;97426.44;4981541;28;20057;-69
2021/09/22 02:01:48;;;;;;;14.40;10.05;;;;;;;14.77;79.44;97386.50;4981058;28;20057;-69
2021/09/22 02:04:15;;;;;;;12.57;9.98;;;;;;;14.88;78.93;97398.53;4980729;28;20050;-69
2021/09/22 02:06:42;;;;;;;12.68;9.43;;;;;;;15.10;77.85;97405.81;4980356;28;20505;-69
2021/09/22 02:09:09;;;;;;;14.55;9.75;;;;;;;15.11;77.94;97413.03;4981252;28;20060;-69
2021/09/22 02:11:36;;;;;;;11.80;9.80;;;;;;;15.01;76.96;97360.75;4981347;28;20057;-69
2021/09/22 02:14:02;;;;;;;12.25;9.27;;;;;;;15.12;76.30;97365.19;4980964;28;20592;-69
2021/09/22 02:16:30;;;;;;;11.15;9.15;;;;;;;15.37;75.18;97397.97;4981088;28;20050;-69
2021/09/22 02:18:57;;;;;;;12.60;9.65;;;;;;;15.32;75.52;97407.53;4981333;28;20085;-69
2021/09/22 02:21:24;;;;;;;10.65;9.25;;;;;;;14.91;73.98;97320.44;4979727;28;20058;-69
2021/09/22 02:23:50;;;;;;;11.27;9.68;;;;;;;14.89;74.77;97319.25;4981637;28;20062;-69
2021/09/22 02:26:17;;;;;;;12.50;9.82;;;;;;;15.40;75.84;97398.03;4981265;28;20054;-69
2021/09/22 02:28:44;;;;;;;14.18;10.02;;;;;;;15.46;76.41;97396.44;4981277;28;20053;-69
2021/09/22 02:31:11;;;;;;;12.35;9.30;;;;;;;14.81;74.90;97312.81;4979810;28;20050;-69
2021/09/22 02:33:37;;;;;;;13.35;10.50;;;;;;;15.36;74.95;97391.59;4979592;28;20058;-68
2021/09/22 02:36:04;;;;;;;12.50;9.68;;;;;;;15.39;74.31;97396.44;4981291;28;20077;-68
2021/09/22 02:38:31;;;;;;;12.70;10.02;;;;;;;15.15;72.59;97363.59;4981272;28;20634;-69
2021/09/22 02:40:58;;;;;;;13.50;10.73;;;;;;;15.24;72.33;97383.56;4983535;28;20167;-69
2021/09/22 02:43:25;;;;;;;13.57;9.40;;;;;;;15.35;70.88;97403.94;4984790;28;20087;-69
2021/09/22 02:45:52;;;;;;;13.68;9.70;;;;;;;15.32;70.53;97395.56;4984122;28;21280;-69
2021/09/22 02:48:19;;;;;;;13.18;9.98;;;;;;;15.23;70.77;97398.72;4984042;28;20089;-69
2021/09/22 02:50:46;;;;;;;15.60;9.95;;;;;;;15.20;70.51;97407.88;4982853;28;20065;-69
2021/09/22 02:53:13;;;;;;;15.02;9.15;;;;;;;15.10;70.45;97394.66;4982418;28;20578;-69
2021/09/22 02:55:42;;;;;;;13.45;9.77;;;;;;;14.73;70.99;97341.09;4984274;28;20077;-69
2021/09/22 02:58:09;;;;;;;13.75;9.73;;;;;;;12.97;70.97;97061.38;4983285;28;20074;-69
2021/09/22 03:00:36;;;;;;;15.15;9.73;;;;;;;14.60;70.31;97334.22;4984210;28;20054;-70
2021/09/22 03:03:03;;;;;;;13.02;9.77;;;;;;;15.14;70.49;97401.06;4982583;28;20533;-69
2021/09/22 03:05:30;;;;;;;12.80;9.48;;;;;;;15.08;69.95;97413.78;4983996;28;20263;-69
2021/09/22 03:07:57;;;;;;;14.10;11.10;;;;;;;15.01;69.39;97399.81;4984034;28;20054;-68
2021/09/22 03:10:24;;;;;;;15.73;11.43;;;;;;;14.93;69.49;97401.75;4983513;28;20462;-69
2021/09/22 03:12:52;;;;;;;15.30;12.07;;;;;;;14.93;69.64;97396.19;4983920;28;20060;-69
2021/09/22 03:15:19;;;;;;;16.98;11.50;;;;;;;15.00;69.78;97401.78;4983766;28;20053;-70
2021/09/22 03:17:47;;;;;;;15.38;12.70;;;;;;;14.81;70.29;97371.38;4982449;28;20552;-70
2021/09/22 03:20:14;;;;;;;15.30;12.10;;;;;;;14.37;69.53;97294.69;4983827;28;20054;-69
2021/09/22 03:22:41;;;;;;;17.70;12.65;;;;;;;14.70;70.07;97381.69;4983957;28;20555;-69
2021/09/22 03:25:09;;;;;;;13.40;10.90;;;;;;;14.69;69.83;97382.06;4983457;28;20428;-70
2021/09/22 03:27:37;;;;;;;14.57;10.38;;;;;;;14.71;70.45;97393.66;4982369;28;20058;-70
2021/09/22 03:30:06;;;;;;;15.50;10.65;;;;;;;14.36;70.54;97348.78;4982213;28;20054;-69
2021/09/22 03:32:33;;;;;;;13.80;10.73;;;;;;;14.63;70.50;97353.78;4983833;28;20097;-69
2021/09/22 03:35:00;;;;;;;15.40;10.93;;;;;;;14.77;70.89;97386.50;4983706;28;20057;-69
2021/09/22 03:37:27;;;;;;;20.23;13.30;;;;;;;14.88;71.03;97392.94;4982053;28;20169;-69
2021/09/22 03:39:53;;;;;;;17.70;12.88;;;;;;;14.74;70.68;97373.34;4983432;28;20046;-69
2021/09/22 03:42:20;;;;;;;18.23;12.52;;;;;;;14.76;70.75;97379.34;4982988;28;20051;-69
2021/09/22 03:44:47;;;;;;;13.82;10.95;;;;;;;14.78;70.92;97383.34;4981923;28;20058;-69
2021/09/22 03:47:14;;;;;;;12.85;10.50;;;;;;;14.92;71.80;97393.78;4983642;28;20061;-70
2021/09/22 03:49:41;;;;;;;16.65;10.32;;;;;;;14.56;71.82;97348.13;4983011;28;20083;-69
2021/09/22 03:52:08;;;;;;;12.70;9.63;;;;;;;14.82;72.95;97395.31;4983542;28;20066;-68
2021/09/22 03:54:34;;;;;;;16.83;10.30;;;;;;;14.63;73.37;97364.13;4982797;28;20069;-68
2021/09/22 03:57:01;;;;;;;13.20;9.70;;;;;;;14.58;73.38;97344.97;4983234;28;20078;-68
2021/09/22 03:59:28;;;;;;;11.23;9.38;;;;;;;14.37;72.72;97322.53;4981834;28;20058;-70
2021/09/22 04:01:55;;;;;;;12.38;9.60;;;;;;;14.81;72.25;97392.94;4983051;28;20061;-69
2021/09/22 04:04:22;;;;;;;14.38;9.63;;;;;;;14.29;72.76;97309.75;4982712;28;20046;-69
2021/09/22 04:06:49;;;;;;;12.40;9.25;;;;;;;14.77;72.97;97381.75;4982969;28;20054;-68
2021/09/22 04:09:18;;;;;;;13.48;9.70;;;;;;;14.78;72.72;97376.94;4983457;28;20058;-69
2021/09/22 04:11:45;;;;;;;12.43;9.50;;;;;;;14.28;72.85;97308.13;4981464;28;20046;-69
2021/09/22 04:14:12;;;;;;;11.93;9.75;;;;;;;14.54;73.11;97355.31;4983021;28;20061;-68
2021/09/22 04:16:38;;;;;;;13.65;10.32;;;;;;;14.23;72.93;97305.66;4982996;28;20145;-68
2021/09/22 04:19:05;;;;;;;12.70;10.13;;;;;;;14.69;72.76;97373.72;4982773;28;20050;-68
2021/09/22 04:21:32;;;;;;;16.67;11.50;;;;;;;14.67;73.37;97376.06;4983161;28;20210;-69
2021/09/22 04:23:59;;;;;;;12.68;9.40;;;;;;;14.78;73.01;97371.38;4983122;28;20053;-69
2021/09/22 04:26:26;;;;;;;16.88;10.15;;;;;;;14.76;72.83;97379.34;4982843;28;20058;-69
2021/09/22 04:28:53;;;;;;;12.93;9.50;;;;;;;14.76;73.17;97368.97;4983359;28;20046;-69
2021/09/22 04:31:20;;;;;;;12.02;9.52;;;;;;;14.58;73.02;97311.50;4981585;28;20062;-68
2021/09/22 04:33:47;;;;;;;12.77;10.07;;;;;;;14.89;72.22;97366.69;4982220;28;20058;-69
2021/09/22 04:36:14;;;;;;;14.13;9.88;;;;;;;14.93;71.38;97361.91;4982504;28;20063;-68
2021/09/22 04:38:41;;;;;;;14.65;10.23;;;;;;;14.89;71.86;97364.66;4982678;28;20062;-69
2021/09/22 04:41:08;;;;;;;12.63;9.70;;;;;;;14.92;72.09;97354.72;4981079;28;20047;-69
2021/09/22 04:43:35;;;;;;;11.82;9.18;;;;;;;14.49;71.78;97313.84;4982368;28;20058;-68
2021/09/22 04:46:02;;;;;;;15.43;9.70;;;;;;;14.74;72.05;97364.97;4982762;28;20050;-68
2021/09/22 04:48:29;;;;;;;12.65;9.73;;;;;;;14.64;72.80;97362.91;4981375;28;20831;-68
2021/09/22 04:50:55;;;;;;;13.05;10.23;;;;;;;14.60;72.90;97370.47;4982407;28;20057;-69
2021/09/22 04:53:22;;;;;;;16.08;11.48;;;;;;;14.60;73.69;97364.91;4980849;28;20050;-68
2021/09/22 04:55:49;;;;;;;15.82;11.52;;;;;;;14.75;73.12;97366.56;4982497;28;20515;-67
2021/09/22 04:58:16;;;;;;;16.65;12.77;;;;;;;14.57;72.92;97318.28;4982428;28;20464;-68
2021/09/22 05:00:43;;;;;;;15.38;12.02;;;;;;;14.46;71.79;97276.38;4982123;28;20824;-67
2021/09/22 05:03:10;;;;;;;15.85;12.05;;;;;;;13.79;71.94;97160.16;4979306;28;20057;-66
2021/09/22 05:05:37;;;;;;;17.13;12.10;;;;;;;14.66;70.48;97262.97;4980826;28;20615;-63
2021/09/22 05:08:04;;;;;;;17.33;10.68;;;;;;;15.00;70.41;97318.09;4980318;28;20616;-63
2021/09/22 05:10:31;;;;;;;13.85;10.30;;;;;;;14.60;70.46;97247.81;4981965;28;20061;-67
2021/09/22 05:12:58;;;;;;;13.98;11.23;;;;;;;15.24;70.51;97354.88;4982174;28;20054;-62
2021/09/22 05:15:25;;;;;;;13.85;11.13;;;;;;;15.20;69.45;97343.69;4981849;28;20155;-64
2021/09/22 05:17:51;;;;;;;14.60;12.65;;;;;;;15.26;69.77;97335.72;4981356;28;20531;-65
2021/09/22 05:20:18;;;;;;;16.80;12.15;;;;;;;14.65;69.24;97225.13;4979656;28;20050;-66
2021/09/22 05:22:45;;;;;;;16.15;11.45;;;;;;;15.58;68.37;97340.25;4968201;28;20402;-64
2021/09/22 05:25:12;;;;;;;14.05;10.25;;;;;;;15.34;66.50;97290.69;4960428;28;20084;-66
2021/09/22 05:27:39;;;;;;;13.85;9.77;;;;;;;15.29;67.14;97296.66;4962497;28;20051;-65
2021/09/22 05:30:06;;;;;;;12.77;10.40;;;;;;;16.02;66.76;97349.09;4961775;28;20537;-63
2021/09/22 05:32:33;;;;;;;13.45;10.15;;;;;;;16.16;65.57;97340.72;4960868;28;20076;-61
2021/09/22 05:35:00;;;;;;;14.05;9.38;;;;;;;15.91;65.26;97289.59;4961655;28;20055;-62
2021/09/22 05:37:29;;;;;;;17.05;10.15;;;;;;;16.29;65.58;97338.31;4962125;28;20120;-63
2021/09/22 05:39:56;;;;;;;10.73;8.80;;;;;;;16.26;64.96;97334.31;4961767;28;20137;-65
2021/09/22 05:42:23;;;;;;;13.10;9.70;;;;;;;15.93;64.90;97301.16;4961142;28;20076;-61
2021/09/22 05:44:50;;;;;;;13.35;10.63;;;;;;;15.73;65.26;97288.78;4974933;28;20058;-63
2021/09/22 05:47:17;;;;;;;13.30;10.02;;;;;;;15.98;64.41;97308.38;4980899;28;20061;-62
2021/09/22 05:49:44;;;;;;;14.15;10.15;;;;;;;15.02;64.91;97158.66;4981226;28;20564;-66
2021/09/22 05:52:11;;;;;;;14.40;9.82;;;;;;;16.18;64.37;97304.78;4978025;28;20050;-66
2021/09/22 05:54:38;;;;;;;10.75;9.27;;;;;;;16.51;64.08;97340.72;4980787;28;20112;-66
2021/09/22 05:57:04;;;;;;;12.77;9.43;;;;;;;15.56;64.07;97222.56;4979804;28;20531;-65
2021/09/22 05:59:31;;;;;;;14.60;8.88;;;;;;;15.79;65.57;97280.81;4964715;28;20096;-67
2021/09/22 06:01:58;;;;;;;11.40;9.27;;;;;;;16.80;63.63;97340.66;4961646;28;20058;-65
2021/09/22 06:04:25;;;;;;;17.38;11.00;;;;;;;16.98;62.56;97327.38;4979951;28;20089;-65
2021/09/22 06:06:52;;;;;;;15.68;10.27;;;;;;;16.09;62.89;97234.50;4979142;28;20050;-62
2021/09/22 06:09:18;;;;;;;21.67;10.73;;;;;;;15.73;66.36;97344.66;4979841;28;20142;-62
2021/09/22 06:11:45;;;;;;;14.40;9.82;;;;;;;15.76;66.84;97366.19;4980141;28;20054;-68
2021/09/22 06:14:12;;;;;;;14.80;9.43;;;;;;;15.89;66.73;97336.69;4982775;28;20051;-62
2021/09/22 06:16:38;;;;;;;19.08;10.13;;;;;;;15.52;68.51;97355.81;4984117;28;20057;-62
2021/09/22 06:19:08;;;;;;;12.00;9.75;;;;;;;15.03;66.89;97255.16;4983268;28;20607;-63
2021/09/22 06:21:37;;;;;;;12.02;8.65;;;;;;;15.26;66.42;97308.63;4984173;28;20511;-64
2021/09/22 06:24:04;;;;;;;19.40;11.73;;;;;;;15.39;66.49;97268.00;4984412;28;20088;-65
2021/09/22 06:26:31;;;;;;;19.50;12.18;;;;;;;14.90;67.36;97234.38;4984995;28;20359;-61
2021/09/22 06:28:58;;;;;;;17.17;9.82;;;;;;;15.34;67.46;97299.06;4983568;28;20088;-64
2021/09/22 06:31:25;;;;;;;15.30;8.85;;;;;;;15.13;68.00;97199.34;4982913;28;20054;-64
2021/09/22 06:33:52;;;;;;;14.00;9.27;;;;;;;16.69;64.47;97323.09;4983962;28;20081;-64
2021/09/22 06:36:19;;;;;;;22.45;11.10;;;;;;;17.05;60.41;97330.19;4982116;28;20927;-64
2021/09/22 06:38:48;;;;;;;17.48;10.55;;;;;;;15.85;60.23;97280.03;4983150;28;20050;-66
2021/09/22 06:41:15;;;;;;;20.33;13.50;;;;;;;15.74;60.00;97293.19;4984113;28;20055;-68
2021/09/22 06:43:41;;;;;;;20.33;13.25;;;;;;;15.45;61.17;97313.88;4983783;28;20054;-65
2021/09/22 06:46:08;;;;;;;20.60;13.40;;;;;;;15.94;62.65;97316.75;4984220;28;20046;-68
2021/09/22 06:48:35;;;;;;;19.45;11.98;;;;;;;16.13;58.62;97257.66;4981103;28;20606;-66
2021/09/22 06:51:02;;;;;;;18.95;11.85;;;;;;;16.94;58.44;97329.41;4980975;28;20054;-66
2021/09/22 06:53:29;;;;;;;14.10;8.32;;;;;;;16.75;53.45;97249.53;4979695;28;20057;-65
2021/09/22 06:55:56;;;;;;;9.90;8.10;;;;;;;17.16;53.21;97316.94;4982217;28;20177;-63
2021/09/22 06:58:23;;;;;;;15.32;9.07;;;;;;;16.11;50.84;97260.03;4981850;28;20046;-65
2021/09/22 07:00:49;;;;;;;15.10;8.20;;;;;;;15.95;52.99;97312.75;4983864;28;20050;-67
2021/09/22 07:03:19;;;;;;;13.60;8.45;;;;;;;15.54;52.94;97319.88;4983022;28;20549;-68
2021/09/22 07:05:46;;;;;;;12.30;7.88;;;;;;;15.89;52.95;97325.53;4981688;28;20505;-66
2021/09/22 07:08:13;;;;;;;10.13;6.82;;;;;;;15.49;51.17;97267.22;4981624;28;20050;-64
2021/09/22 07:10:41;;;;;;;11.07;8.73;;;;;;;15.61;51.98;97333.88;4983518;28;20078;-68
2021/09/22 07:13:08;;;;;;;11.27;7.70;;;;;;;15.50;52.39;97277.22;4982779;28;20424;-68
2021/09/22 07:15:35;;;;;;;14.20;9.07;;;;;;;14.93;51.50;97250.31;4983471;28;20444;-66
2021/09/22 07:18:16;;;;;;;9.70;6.65;;;;;;;15.62;50.71;97326.28;4982844;28;20142;-66
2021/09/22 07:20:42;;;;;;;13.60;8.63;;;;;;;16.20;49.76;97335.91;4983399;28;20055;-61
2021/09/22 07:23:09;;;;;;;10.70;8.23;;;;;;;16.31;49.17;97345.09;4983222;28;20061;-63
2021/09/22 07:25:36;;;;;;;15.90;9.10;;;;;;;16.36;51.41;97305.53;4982987;28;20061;-60
2021/09/22 07:28:03;;;;;;;17.80;8.70;;;;;;;16.92;49.75;97320.63;4983421;28;20074;-65
2021/09/22 07:30:30;;;;;;;9.65;7.50;;;;;;;17.05;48.42;97317.00;4983386;28;20141;-64
2021/09/22 07:32:59;;;;;;;13.63;7.80;;;;;;;16.44;49.08;97268.00;4983001;28;20515;-64
2021/09/22 07:35:27;;;;;;;11.75;7.50;;;;;;;16.13;47.86;97148.66;4983248;28;20050;-65
2021/09/22 07:37:54;;;;;;;14.10;7.82;;;;;;;15.69;47.71;96996.75;4981490;28;20059;-64
2021/09/22 07:40:21;;;;;;;14.40;8.40;;;;;;;15.23;47.83;96941.03;4984552;28;20058;-62
2021/09/22 07:42:47;;;;;;;13.85;8.70;;;;;;;17.26;47.86;97297.28;4983942;28;20161;-62
2021/09/22 07:45:15;;;;;;;20.45;9.82;;;;;;;16.45;49.89;97280.78;4982643;28;20073;-62
2021/09/22 07:47:42;;;;;;;19.67;9.63;;;;;;;16.39;50.29;97303.94;4983257;28;20050;-65
2021/09/22 07:50:10;;;;;;;10.45;7.10;;;;;;;15.70;49.41;97244.91;4982148;28;20050;-65
2021/09/22 07:52:38;;;;;;;13.93;8.35;;;;;;;15.85;50.98;97309.97;4981466;28;20487;-66
2021/09/22 07:55:08;;;;;;;13.30;7.72;;;;;;;16.10;50.70;97314.34;4982221;28;20062;-65
2021/09/22 07:57:34;;;;;;;26.63;8.38;;;;;;;16.28;49.51;97275.22;4982984;28;20403;-68
2021/09/22 08:00:02;;;;;;;14.70;9.95;;;;;;;16.95;49.73;97297.41;4963518;28;20047;-62
2021/09/22 08:02:29;;;;;;;12.48;7.38;;;;;;;17.32;48.12;97294.84;4966405;28;20421;-64
2021/09/22 08:04:56;;;;;;;10.43;7.43;;;;;;;15.51;47.24;96957.72;4982911;28;20050;-66
2021/09/22 08:07:44;;;;;;;18.08;10.00;;;;;;;17.85;47.03;97289.72;4981662;28;20068;-62
2021/09/22 08:10:13;;;;;;;12.48;7.75;;;;;;;18.03;46.10;97284.78;4982077;28;20535;-63
2021/09/22 08:12:40;;;;;;;22.92;8.55;;;;;;;17.36;44.95;97190.00;4980730;28;20050;-63
2021/09/22 08:15:07;;;;;;;15.23;9.18;;;;;;;16.55;49.01;97288.34;4980278;28;20062;-62
2021/09/22 08:17:34;;;;;;;8.27;7.25;;;;;;;16.37;48.36;97270.81;4980873;28;20047;-63
2021/09/22 08:20:02;;;;;;;10.43;7.55;;;;;;;16.47;48.03;97272.78;4980193;28;20517;-61
2021/09/22 08:22:29;;;;;;;15.27;8.43;;;;;;;14.91;48.44;97001.66;4982377;28;20057;-61
2021/09/22 08:24:55;;;;;;;12.55;8.07;;;;;;;16.62;48.75;97262.38;4982217;28;20050;-63
2021/09/22 08:27:22;;;;;;;12.93;8.40;;;;;;;15.91;47.79;97180.66;4982525;28;20542;-68
2021/09/22 08:29:49;;;;;;;20.48;8.30;;;;;;;16.84;47.80;97246.28;4981329;28;20604;-67
2021/09/22 08:32:16;;;;;;;13.77;8.18;;;;;;;16.08;49.20;97199.38;4982372;28;20054;-66
2021/09/22 08:34:44;;;;;;;15.73;9.40;;;;;;;16.28;49.05;97264.03;4981762;28;20073;-62
2021/09/22 08:37:11;;;;;;;19.90;11.15;;;;;;;16.81;48.60;97263.91;4980945;28;20050;-65
2021/09/22 08:39:37;;;;;;;14.00;8.88;;;;;;;17.17;47.79;97220.53;4982310;28;20057;-67
2021/09/22 08:42:05;;;;;;;9.45;7.93;;;;;;;16.87;46.28;97256.66;4982934;28;20054;-64
2021/09/22 08:44:32;;;;;;;11.07;8.00;;;;;;;16.82;46.22;97198.34;4980856;28;20054;-64
2021/09/22 08:47:00;;;;;;;22.98;13.20;;;;;;;16.90;46.79;97185.94;4982724;28;20157;-65
2021/09/22 08:49:27;;;;;;;15.13;10.15;;;;;;;17.95;46.22;97232.81;4980495;28;20424;-66
2021/09/22 08:51:55;;;;;;;11.35;9.50;;;;;;;18.44;44.41;97243.56;4982318;28;20058;-63
2021/09/22 08:54:22;;;;;;;15.07;8.85;;;;;;;18.05;45.42;97161.84;4981511;28;20053;-68
2021/09/22 08:56:48;;;;;;;35.80;18.85;;;;;;;19.09;43.42;97226.34;4981884;28;20057;-66
2021/09/22 08:59:16;;;;;;;10.60;8.57;;;;;;;19.03;42.94;97197.13;4981445;28;20051;-68
2021/09/22 09:02:07;;;;;;;12.82;8.60;;;;;;;19.45;42.75;97224.66;4980526;28;20346;-66
2021/09/22 09:04:37;;;;;;;14.75;11.02;;;;;;;18.46;42.20;97089.66;4979902;28;20057;-67
2021/09/22 09:07:04;;;;;;;19.08;14.27;;;;;;;18.34;44.30;97227.59;4981944;28;20058;-66
2021/09/22 09:09:42;;;;;;;9.68;8.57;;;;;;;18.89;44.48;97224.63;4981154;28;20050;-63
2021/09/22 09:12:20;;;;;;;14.77;10.32;;;;;;;19.14;44.20;97211.81;4980105;28;20092;-71
2021/09/22 09:14:56;;;;;;;12.80;11.00;;;;;;;19.71;43.00;97202.59;4980843;28;20054;-66
2021/09/22 09:17:45;;;;;;;12.93;8.93;;;;;;;20.25;41.99;97209.72;4979869;28;20363;-65
2021/09/22 09:20:17;;;;;;;9.27;7.70;;;;;;;20.16;42.30;97217.91;4980973;28;20050;-69
2021/09/22 09:23:04;;;;;;;12.80;7.63;;;;;;;20.04;42.44;97210.06;4981928;28;20421;-64
2021/09/22 09:26:03;;;;;;;10.63;8.57;;;;;;;20.37;41.67;97209.06;4981739;28;20069;-62
2021/09/22 09:28:35;;;;;;;10.43;6.57;;;;;;;20.36;41.74;97204.69;4981225;28;20604;-63
2021/09/22 09:31:07;;;;;;;8.00;6.70;;;;;;;19.66;41.82;97161.69;4980262;28;20422;-63
2021/09/22 09:33:39;;;;;;;9.70;6.45;;;;;;;19.78;42.15;97202.44;4981234;28;20054;-62
2021/09/22 09:36:13;;;;;;;21.60;12.80;;;;;;;19.04;44.90;97186.69;4981889;28;20086;-62
2021/09/22 09:38:39;;;;;;;15.15;9.98;;;;;;;18.42;45.00;97139.41;4980152;28;20058;-62
2021/09/22 09:41:06;;;;;;;17.30;9.80;;;;;;;18.39;45.51;97148.66;4979686;28;20061;-63
2021/09/22 09:43:46;;;;;;;14.23;9.02;;;;;;;17.85;46.26;97128.00;4980875;28;20062;-64
2021/09/22 09:46:22;;;;;;;18.13;11.95;;;;;;;17.64;46.23;97088.97;4981635;28;20579;-66
2021/09/22 09:49:19;;;;;;;13.35;7.75;;;;;;;17.33;46.79;97134.03;4980549;28;20940;-65
2021/09/22 09:51:48;;;;;;;10.60;8.52;;;;;;;17.45;47.78;97184.00;4981200;28;20062;-66
2021/09/22 09:54:24;;;;;;;16.90;8.70;;;;;;;17.78;46.52;97195.31;4980925;28;20061;-64
2021/09/22 09:56:53;;;;;;;15.10;9.48;;;;;;;17.85;46.57;97206.47;4981061;28;20054;-65
2021/09/22 09:59:22;;;;;;;12.23;8.80;;;;;;;16.71;47.59;97136.06;4980734;28;20046;-66
2021/09/22 10:01:51;;;;;;;10.52;7.93;;;;;;;17.30;46.77;97213.25;4979557;28;20058;-65
2021/09/22 10:04:21;;;;;;;10.00;8.30;;;;;;;16.52;49.65;97182.88;4981103;28;20050;-65
2021/09/22 10:06:51;;;;;;;10.27;8.88;;;;;;;16.36;51.54;97210.47;4981359;28;20133;-65
2021/09/22 10:09:18;;;;;;;10.52;7.45;;;;;;;16.19;47.26;97197.34;4974285;28;20047;-64
2021/09/22 10:11:47;;;;;;;9.68;8.10;;;;;;;16.03;47.00;97160.66;4965951;28;20065;-64
2021/09/22 10:14:15;;;;;;;9.25;6.07;;;;;;;15.84;47.38;97194.59;4979124;28;20145;-66
2021/09/22 10:16:43;;;;;;;13.63;8.35;;;;;;;15.32;48.24;97061.41;4980102;28;20149;-65
2021/09/22 10:19:10;;;;;;;7.78;5.68;;;;;;;14.94;48.39;97065.00;4978483;28;20089;-65
2021/09/22 10:21:38;;;;;;;9.07;6.05;;;;;;;13.45;48.49;96829.19;4962598;28;20051;-66
2021/09/22 10:24:11;;;;;;;10.77;7.03;;;;;;;15.47;49.20;97124.44;4961292;28;20165;-66
2021/09/22 10:26:39;;;;;;;11.63;6.70;;;;;;;15.66;48.64;97193.84;4970315;28;20050;-67
2021/09/22 10:29:23;;;;;;;12.98;7.65;;;;;;;15.94;48.93;97193.81;4966299;28;20157;-66
2021/09/22 10:31:50;;;;;;;9.13;7.80;;;;;;;14.24;48.51;96906.06;4975983;28;20058;-67
2021/09/22 10:34:32;;;;;;;12.00;7.53;;;;;;;15.57;49.26;97151.53;4979197;28;20062;-64
2021/09/22 10:37:03;;;;;;;9.43;7.10;;;;;;;15.88;47.78;97172.25;4974292;28;20112;-65
2021/09/22 10:39:35;;;;;;;9.32;6.85;;;;;;;15.80;49.03;97177.06;4963814;28;20530;-63
2021/09/22 10:42:22;;;;;;;11.07;7.33;;;;;;;15.97;48.66;97169.84;4978872;28;20056;-61
2021/09/22 10:44:49;;;;;;;18.35;7.40;;;;;;;15.76;47.95;97089.69;4980059;28;20445;-66
2021/09/22 10:47:23;;;;;;;10.07;7.88;;;;;;;16.19;48.47;97182.56;4978807;28;20050;-67
2021/09/22 10:49:50;;;;;;;17.60;7.85;;;;;;;14.94;48.38;97059.44;4960861;28;20057;-66
2021/09/22 10:52:30;;;;;;;18.25;7.68;;;;;;;16.01;48.64;97165.06;4959612;28;20116;-62
2021/09/22 10:55:18;;;;;;;9.02;6.68;;;;;;;15.91;48.14;97179.84;4960397;28;20389;-65
2021/09/22 10:57:47;;;;;;;9.18;7.47;;;;;;;16.00;47.91;97158.66;4962132;28;20137;-61
2021/09/22 11:00:16;;;;;;;9.60;7.68;;;;;;;16.72;48.47;97151.63;4976919;28;20418;-66
2021/09/22 11:02:48;;;;;;;7.90;6.30;;;;;;;16.79;46.25;97140.41;4968978;28;20510;-64
2021/09/22 11:05:27;;;;;;;17.10;10.07;;;;;;;17.26;46.83;97159.28;4981636;28;20112;-66
2021/09/22 11:07:59;;;;;;;8.88;7.07;;;;;;;17.29;46.70;97162.06;4976754;28;20535;-64
2021/09/22 11:10:46;;;;;;;11.38;6.90;;;;;;;16.99;45.90;97094.72;4973912;28;20097;-64
2021/09/22 11:13:19;;;;;;;12.35;8.32;;;;;;;17.30;47.00;97154.47;4972677;28;20081;-65
2021/09/22 11:15:47;;;;;;;10.80;7.20;;;;;;;15.49;45.98;96867.19;4964532;28;20059;-64
2021/09/22 11:18:15;;;;;;;10.80;6.38;;;;;;;17.35;45.01;97134.41;4974545;28;20046;-68
2021/09/22 11:21:02;;;;;;;9.77;6.53;;;;;;;15.86;45.25;96893.31;4968337;28;20054;-61
2021/09/22 11:23:30;;;;;;;10.15;8.05;;;;;;;17.77;45.85;97153.69;4978360;28;20133;-67
2021/09/22 11:26:08;;;;;;;10.30;7.75;;;;;;;17.48;44.20;97146.75;4980569;28;20062;-64
2021/09/22 11:28:36;;;;;;;12.30;8.65;;;;;;;17.58;45.23;97140.25;4983055;28;20066;-67
2021/09/22 11:31:03;;;;;;;10.88;7.07;;;;;;;18.08;44.30;97133.75;4981964;28;20050;-68